sensor_id;sensor_type;location;lat;lon;timestamp;temperature;humidity
51655;DHT22;37732;53.106;7.030;2024-03-25T00:00:29;6.00;99.90
51655;DHT22;37732;53.106;7.030;2024-03-25T00:02:55;6.00;99.90
51655;DHT22;37732;53.106;7.030;2024-03-25T00:05:20;5.90;99.90
51655;DHT22;37732;53.106;7.030;2024-03-25T00:07:51;5.90;99.90
51655;DHT22;37732;53.106;7.030;2024-03-25T00:10:17;6.10;99.90
51655;DHT22;37732;53.106;7.030;2024-03-25T00:12:43;5.90;99.90
51655;DHT22;37732;53.106;7.030;2024-03-25T00:15:09;5.90;99.90
51655;DHT22;37732;53.106;7.030;2024-03-25T00:17:35;5.90;99.90
51655;DHT22;37732;53.106;7.030;2024-03-25T00:20:01;5.90;99.90
51655;DHT22;37732;53.106;7.030;2024-03-25T00:22:27;5.90;99.90
51655;DHT22;37732;53.106;7.030;2024-03-25T00:24:53;5.90;99.90
51655;DHT22;37732;53.106;7.030;2024-03-25T00:27:19;5.90;99.90
51655;DHT22;37732;53.106;7.030;2024-03-25T00:29:44;6.00;99.90
51655;DHT22;37732;53.106;7.030;2024-03-25T00:32:10;5.90;99.90
51655;DHT22;37732;53.106;7.030;2024-03-25T00:34:36;5.90;99.90
51655;DHT22;37732;53.106;7.030;2024-03-25T00:37:02;5.90;99.90
51655;DHT22;37732;53.106;7.030;2024-03-25T00:39:29;5.90;99.90
51655;DHT22;37732;53.106;7.030;2024-03-25T00:41:58;6.00;99.90
51655;DHT22;37732;53.106;7.030;2024-03-25T00:44:23;5.90;99.90
51655;DHT22;37732;53.106;7.030;2024-03-25T00:46:49;6.00;99.90
51655;DHT22;37732;53.106;7.030;2024-03-25T00:49:15;5.80;99.90
51655;DHT22;37732;53.106;7.030;2024-03-25T00:51:41;5.80;99.90
51655;DHT22;37732;53.106;7.030;2024-03-25T00:54:06;5.80;99.90
51655;DHT22;37732;53.106;7.030;2024-03-25T00:56:32;5.80;99.90
51655;DHT22;37732;53.106;7.030;2024-03-25T00:58:58;5.80;99.90
51655;DHT22;37732;53.106;7.030;2024-03-25T01:03:58;5.80;99.90
51655;DHT22;37732;53.106;7.030;2024-03-25T01:06:24;5.80;99.90
51655;DHT22;37732;53.106;7.030;2024-03-25T01:08:50;5.80;99.90
51655;DHT22;37732;53.106;7.030;2024-03-25T01:11:16;5.80;99.90
51655;DHT22;37732;53.106;7.030;2024-03-25T01:13:42;5.80;99.90
51655;DHT22;37732;53.106;7.030;2024-03-25T01:16:08;5.80;99.90
51655;DHT22;37732;53.106;7.030;2024-03-25T01:18:33;5.70;99.90
51655;DHT22;37732;53.106;7.030;2024-03-25T01:20:59;5.70;99.90
51655;DHT22;37732;53.106;7.030;2024-03-25T01:23:26;5.70;99.90
51655;DHT22;37732;53.106;7.030;2024-03-25T01:25:51;5.50;99.90
51655;DHT22;37732;53.106;7.030;2024-03-25T01:28:17;5.50;99.90
51655;DHT22;37732;53.106;7.030;2024-03-25T01:30:43;5.50;99.90
51655;DHT22;37732;53.106;7.030;2024-03-25T01:33:09;5.80;99.90
51655;DHT22;37732;53.106;7.030;2024-03-25T01:35:34;5.40;99.90
51655;DHT22;37732;53.106;7.030;2024-03-25T01:38:01;5.40;99.90
51655;DHT22;37732;53.106;7.030;2024-03-25T01:40:26;5.30;99.90
51655;DHT22;37732;53.106;7.030;2024-03-25T01:42:59;5.40;99.90
51655;DHT22;37732;53.106;7.030;2024-03-25T01:45:25;5.40;99.90
51655;DHT22;37732;53.106;7.030;2024-03-25T01:47:52;5.40;99.90
51655;DHT22;37732;53.106;7.030;2024-03-25T01:50:19;5.40;99.90
51655;DHT22;37732;53.106;7.030;2024-03-25T01:52:44;5.40;99.90
51655;DHT22;37732;53.106;7.030;2024-03-25T01:55:14;5.40;99.90
51655;DHT22;37732;53.106;7.030;2024-03-25T01:57:43;5.70;99.90
51655;DHT22;37732;53.106;7.030;2024-03-25T02:00:09;5.40;99.90
51655;DHT22;37732;53.106;7.030;2024-03-25T02:02:37;5.40;99.90
51655;DHT22;37732;53.106;7.030;2024-03-25T02:05:07;6.10;99.90
51655;DHT22;37732;53.106;7.030;2024-03-25T02:07:35;5.40;99.90
51655;DHT22;37732;53.106;7.030;2024-03-25T02:10:03;5.40;99.90
51655;DHT22;37732;53.106;7.030;2024-03-25T02:12:30;5.40;99.90
51655;DHT22;37732;53.106;7.030;2024-03-25T02:14:57;5.40;99.90
51655;DHT22;37732;53.106;7.030;2024-03-25T02:17:24;5.50;99.90
51655;DHT22;37732;53.106;7.030;2024-03-25T02:19:50;5.60;99.90
51655;DHT22;37732;53.106;7.030;2024-03-25T02:22:16;5.40;99.90
51655;DHT22;37732;53.106;7.030;2024-03-25T02:24:43;5.50;99.90
51655;DHT22;37732;53.106;7.030;2024-03-25T02:27:10;5.50;99.90
51655;DHT22;37732;53.106;7.030;2024-03-25T02:29:40;5.50;99.90
51655;DHT22;37732;53.106;7.030;2024-03-25T02:32:07;5.50;99.90
51655;DHT22;37732;53.106;7.030;2024-03-25T02:34:37;5.50;99.90
51655;DHT22;37732;53.106;7.030;2024-03-25T02:37:03;5.50;99.90
51655;DHT22;37732;53.106;7.030;2024-03-25T02:39:29;5.50;99.90
51655;DHT22;37732;53.106;7.030;2024-03-25T02:41:55;5.50;99.90
51655;DHT22;37732;53.106;7.030;2024-03-25T02:44:23;5.50;99.90
51655;DHT22;37732;53.106;7.030;2024-03-25T02:46:49;5.50;99.90
51655;DHT22;37732;53.106;7.030;2024-03-25T02:49:15;5.50;99.90
51655;DHT22;37732;53.106;7.030;2024-03-25T02:51:40;5.40;99.90
51655;DHT22;37732;53.106;7.030;2024-03-25T02:54:06;5.40;99.90
51655;DHT22;37732;53.106;7.030;2024-03-25T02:56:33;5.50;99.90
51655;DHT22;37732;53.106;7.030;2024-03-25T02:58:59;5.40;99.90
51655;DHT22;37732;53.106;7.030;2024-03-25T03:01:25;5.40;99.90
51655;DHT22;37732;53.106;7.030;2024-03-25T03:03:50;5.40;99.90
51655;DHT22;37732;53.106;7.030;2024-03-25T03:06:16;6.50;99.90
51655;DHT22;37732;53.106;7.030;2024-03-25T03:08:41;6.00;99.90
51655;DHT22;37732;53.106;7.030;2024-03-25T03:11:07;5.40;99.90
51655;DHT22;37732;53.106;7.030;2024-03-25T03:13:33;5.40;99.90
51655;DHT22;37732;53.106;7.030;2024-03-25T03:15:58;5.40;99.90
51655;DHT22;37732;53.106;7.030;2024-03-25T03:18:24;5.40;99.90
51655;DHT22;37732;53.106;7.030;2024-03-25T03:20:49;5.40;99.90
51655;DHT22;37732;53.106;7.030;2024-03-25T03:23:15;5.40;99.90
51655;DHT22;37732;53.106;7.030;2024-03-25T03:25:41;5.40;99.90
51655;DHT22;37732;53.106;7.030;2024-03-25T03:28:08;5.50;99.90
51655;DHT22;37732;53.106;7.030;2024-03-25T03:30:33;5.70;99.90
51655;DHT22;37732;53.106;7.030;2024-03-25T03:33:00;5.70;99.90
51655;DHT22;37732;53.106;7.030;2024-03-25T03:35:26;5.70;99.90
51655;DHT22;37732;53.106;7.030;2024-03-25T03:37:51;5.60;99.90
51655;DHT22;37732;53.106;7.030;2024-03-25T03:40:17;5.50;99.90
51655;DHT22;37732;53.106;7.030;2024-03-25T03:42:43;5.50;99.90
51655;DHT22;37732;53.106;7.030;2024-03-25T03:45:09;5.60;99.90
51655;DHT22;37732;53.106;7.030;2024-03-25T03:47:34;5.50;99.90
51655;DHT22;37732;53.106;7.030;2024-03-25T03:50:00;5.50;99.90
51655;DHT22;37732;53.106;7.030;2024-03-25T03:52:26;5.50;99.90
51655;DHT22;37732;53.106;7.030;2024-03-25T03:54:51;5.50;99.90
51655;DHT22;37732;53.106;7.030;2024-03-25T03:57:17;5.60;99.90
51655;DHT22;37732;53.106;7.030;2024-03-25T03:59:42;5.50;99.90
51655;DHT22;37732;53.106;7.030;2024-03-25T04:02:08;5.70;99.90
51655;DHT22;37732;53.106;7.030;2024-03-25T04:04:34;5.50;99.90
51655;DHT22;37732;53.106;7.030;2024-03-25T04:07:01;5.50;99.90
51655;DHT22;37732;53.106;7.030;2024-03-25T04:09:27;5.40;99.90
51655;DHT22;37732;53.106;7.030;2024-03-25T04:11:54;5.40;99.90
51655;DHT22;37732;53.106;7.030;2024-03-25T04:14:20;4.90;99.90
51655;DHT22;37732;53.106;7.030;2024-03-25T04:16:46;5.50;99.90
51655;DHT22;37732;53.106;7.030;2024-03-25T04:19:12;5.40;99.90
51655;DHT22;37732;53.106;7.030;2024-03-25T04:21:38;5.40;99.90
51655;DHT22;37732;53.106;7.030;2024-03-25T04:24:05;5.40;99.90
51655;DHT22;37732;53.106;7.030;2024-03-25T04:26:31;5.40;99.90
51655;DHT22;37732;53.106;7.030;2024-03-25T04:28:57;5.50;99.90
51655;DHT22;37732;53.106;7.030;2024-03-25T04:31:23;5.40;99.90
51655;DHT22;37732;53.106;7.030;2024-03-25T04:33:48;5.40;99.90
51655;DHT22;37732;53.106;7.030;2024-03-25T04:36:14;5.60;99.90
51655;DHT22;37732;53.106;7.030;2024-03-25T04:38:39;5.50;99.90
51655;DHT22;37732;53.106;7.030;2024-03-25T04:41:05;5.30;99.90
51655;DHT22;37732;53.106;7.030;2024-03-25T04:43:31;5.40;99.90
51655;DHT22;37732;53.106;7.030;2024-03-25T04:46:00;5.30;99.90
51655;DHT22;37732;53.106;7.030;2024-03-25T04:48:26;5.60;99.90
51655;DHT22;37732;53.106;7.030;2024-03-25T04:50:52;5.30;99.90
51655;DHT22;37732;53.106;7.030;2024-03-25T04:53:17;5.30;99.90
51655;DHT22;37732;53.106;7.030;2024-03-25T04:55:43;5.30;99.90
51655;DHT22;37732;53.106;7.030;2024-03-25T04:58:09;5.70;99.90
51655;DHT22;37732;53.106;7.030;2024-03-25T05:00:34;5.30;99.90
51655;DHT22;37732;53.106;7.030;2024-03-25T05:03:00;5.30;99.90
51655;DHT22;37732;53.106;7.030;2024-03-25T05:05:25;5.30;99.90
51655;DHT22;37732;53.106;7.030;2024-03-25T05:07:51;5.30;99.90
51655;DHT22;37732;53.106;7.030;2024-03-25T05:10:17;5.30;99.90
51655;DHT22;37732;53.106;7.030;2024-03-25T05:12:42;5.30;99.90
51655;DHT22;37732;53.106;7.030;2024-03-25T05:15:09;5.30;99.90
51655;DHT22;37732;53.106;7.030;2024-03-25T05:17:36;5.30;99.90
51655;DHT22;37732;53.106;7.030;2024-03-25T05:20:02;5.30;99.90
51655;DHT22;37732;53.106;7.030;2024-03-25T05:22:30;5.30;99.90
51655;DHT22;37732;53.106;7.030;2024-03-25T05:24:56;5.30;99.90
51655;DHT22;37732;53.106;7.030;2024-03-25T05:27:21;5.30;99.90
51655;DHT22;37732;53.106;7.030;2024-03-25T05:29:49;5.30;99.90
51655;DHT22;37732;53.106;7.030;2024-03-25T05:32:15;5.40;99.90
51655;DHT22;37732;53.106;7.030;2024-03-25T05:34:42;5.40;99.90
51655;DHT22;37732;53.106;7.030;2024-03-25T05:37:08;5.30;99.90
51655;DHT22;37732;53.106;7.030;2024-03-25T05:39:33;5.30;99.90
51655;DHT22;37732;53.106;7.030;2024-03-25T05:41:59;5.70;99.90
51655;DHT22;37732;53.106;7.030;2024-03-25T05:44:24;5.30;99.90
51655;DHT22;37732;53.106;7.030;2024-03-25T05:46:50;5.30;99.90
51655;DHT22;37732;53.106;7.030;2024-03-25T05:49:16;5.30;99.90
51655;DHT22;37732;53.106;7.030;2024-03-25T05:51:41;5.30;99.90
51655;DHT22;37732;53.106;7.030;2024-03-25T05:54:07;5.30;99.90
51655;DHT22;37732;53.106;7.030;2024-03-25T05:56:32;5.50;99.90
51655;DHT22;37732;53.106;7.030;2024-03-25T05:59:00;5.40;99.90
51655;DHT22;37732;53.106;7.030;2024-03-25T06:01:26;5.40;99.90
51655;DHT22;37732;53.106;7.030;2024-03-25T06:03:52;5.30;99.90
51655;DHT22;37732;53.106;7.030;2024-03-25T06:06:18;5.20;99.90
51655;DHT22;37732;53.106;7.030;2024-03-25T06:08:44;5.20;99.90
51655;DHT22;37732;53.106;7.030;2024-03-25T06:11:10;5.20;99.90
51655;DHT22;37732;53.106;7.030;2024-03-25T06:13:35;5.10;99.90
51655;DHT22;37732;53.106;7.030;2024-03-25T06:16:01;5.10;99.90
51655;DHT22;37732;53.106;7.030;2024-03-25T06:18:27;5.00;99.90
51655;DHT22;37732;53.106;7.030;2024-03-25T06:20:52;5.00;99.90
51655;DHT22;37732;53.106;7.030;2024-03-25T06:23:23;5.10;99.90
51655;DHT22;37732;53.106;7.030;2024-03-25T06:25:52;5.10;99.90
51655;DHT22;37732;53.106;7.030;2024-03-25T06:28:19;5.30;99.90
51655;DHT22;37732;53.106;7.030;2024-03-25T06:30:49;5.40;99.90
51655;DHT22;37732;53.106;7.030;2024-03-25T06:33:34;5.60;99.90
51655;DHT22;37732;53.106;7.030;2024-03-25T06:36:19;5.80;99.90
51655;DHT22;37732;53.106;7.030;2024-03-25T06:38:45;5.80;99.90
51655;DHT22;37732;53.106;7.030;2024-03-25T06:41:11;5.80;99.90
51655;DHT22;37732;53.106;7.030;2024-03-25T06:43:37;5.80;99.90
51655;DHT22;37732;53.106;7.030;2024-03-25T06:46:07;5.90;99.90
51655;DHT22;37732;53.106;7.030;2024-03-25T06:48:33;6.10;99.90
51655;DHT22;37732;53.106;7.030;2024-03-25T06:51:00;6.10;99.90
51655;DHT22;37732;53.106;7.030;2024-03-25T06:53:28;6.10;99.90
51655;DHT22;37732;53.106;7.030;2024-03-25T06:55:55;6.20;99.90
51655;DHT22;37732;53.106;7.030;2024-03-25T06:58:24;6.40;99.90
51655;DHT22;37732;53.106;7.030;2024-03-25T07:00:50;6.50;99.90
51655;DHT22;37732;53.106;7.030;2024-03-25T07:03:20;6.50;99.90
51655;DHT22;37732;53.106;7.030;2024-03-25T07:05:46;6.50;99.90
51655;DHT22;37732;53.106;7.030;2024-03-25T07:08:13;6.50;99.90
51655;DHT22;37732;53.106;7.030;2024-03-25T07:10:41;6.50;99.90
51655;DHT22;37732;53.106;7.030;2024-03-25T07:13:06;6.70;99.90
51655;DHT22;37732;53.106;7.030;2024-03-25T07:15:32;6.90;99.90
51655;DHT22;37732;53.106;7.030;2024-03-25T07:17:58;7.10;99.90
51655;DHT22;37732;53.106;7.030;2024-03-25T07:20:24;7.60;99.90
51655;DHT22;37732;53.106;7.030;2024-03-25T07:22:50;7.40;99.90
51655;DHT22;37732;53.106;7.030;2024-03-25T07:25:15;7.60;99.90
51655;DHT22;37732;53.106;7.030;2024-03-25T07:27:41;7.80;99.90
51655;DHT22;37732;53.106;7.030;2024-03-25T07:30:07;8.00;99.90
51655;DHT22;37732;53.106;7.030;2024-03-25T07:32:34;8.10;99.90
51655;DHT22;37732;53.106;7.030;2024-03-25T07:35:00;8.10;99.90
51655;DHT22;37732;53.106;7.030;2024-03-25T07:37:26;8.00;99.90
51655;DHT22;37732;53.106;7.030;2024-03-25T07:39:52;7.90;99.90
51655;DHT22;37732;53.106;7.030;2024-03-25T07:42:18;7.80;99.90
51655;DHT22;37732;53.106;7.030;2024-03-25T07:44:43;7.80;99.90
51655;DHT22;37732;53.106;7.030;2024-03-25T07:47:09;7.90;99.90
51655;DHT22;37732;53.106;7.030;2024-03-25T07:49:35;7.90;99.90
51655;DHT22;37732;53.106;7.030;2024-03-25T07:52:01;8.00;99.90
51655;DHT22;37732;53.106;7.030;2024-03-25T07:54:27;8.00;99.90
51655;DHT22;37732;53.106;7.030;2024-03-25T07:56:53;8.20;99.90
51655;DHT22;37732;53.106;7.030;2024-03-25T07:59:19;8.40;99.90
51655;DHT22;37732;53.106;7.030;2024-03-25T08:01:44;8.40;99.90
51655;DHT22;37732;53.106;7.030;2024-03-25T08:04:10;8.50;99.90
51655;DHT22;37732;53.106;7.030;2024-03-25T08:06:36;8.50;99.90
51655;DHT22;37732;53.106;7.030;2024-03-25T08:09:02;8.50;99.90
51655;DHT22;37732;53.106;7.030;2024-03-25T08:11:31;8.70;99.90
51655;DHT22;37732;53.106;7.030;2024-03-25T08:13:56;8.80;99.90
51655;DHT22;37732;53.106;7.030;2024-03-25T08:16:22;8.80;99.90
51655;DHT22;37732;53.106;7.030;2024-03-25T08:18:48;8.80;99.90
51655;DHT22;37732;53.106;7.030;2024-03-25T08:21:14;8.80;99.90
51655;DHT22;37732;53.106;7.030;2024-03-25T08:23:39;8.70;99.90
51655;DHT22;37732;53.106;7.030;2024-03-25T08:26:06;8.60;99.90
51655;DHT22;37732;53.106;7.030;2024-03-25T08:28:32;8.80;99.90
51655;DHT22;37732;53.106;7.030;2024-03-25T08:30:58;8.50;99.90
51655;DHT22;37732;53.106;7.030;2024-03-25T08:33:24;8.40;99.90
51655;DHT22;37732;53.106;7.030;2024-03-25T08:35:49;8.50;99.90
51655;DHT22;37732;53.106;7.030;2024-03-25T08:38:16;8.60;99.90
51655;DHT22;37732;53.106;7.030;2024-03-25T08:40:41;8.30;99.90
51655;DHT22;37732;53.106;7.030;2024-03-25T08:43:07;8.30;99.90
51655;DHT22;37732;53.106;7.030;2024-03-25T08:45:33;8.10;99.90
51655;DHT22;37732;53.106;7.030;2024-03-25T08:47:58;8.20;99.90
51655;DHT22;37732;53.106;7.030;2024-03-25T08:50:24;8.20;99.90
51655;DHT22;37732;53.106;7.030;2024-03-25T08:52:50;8.30;99.90
51655;DHT22;37732;53.106;7.030;2024-03-25T08:55:15;8.50;99.90
51655;DHT22;37732;53.106;7.030;2024-03-25T08:57:41;8.20;99.90
51655;DHT22;37732;53.106;7.030;2024-03-25T09:00:07;8.30;99.90
51655;DHT22;37732;53.106;7.030;2024-03-25T09:02:39;8.10;99.90
51655;DHT22;37732;53.106;7.030;2024-03-25T09:05:05;8.10;99.90
51655;DHT22;37732;53.106;7.030;2024-03-25T09:07:31;8.20;99.90
51655;DHT22;37732;53.106;7.030;2024-03-25T09:09:57;8.20;99.90
51655;DHT22;37732;53.106;7.030;2024-03-25T09:12:41;8.50;99.90
51655;DHT22;37732;53.106;7.030;2024-03-25T09:15:07;8.80;99.90
51655;DHT22;37732;53.106;7.030;2024-03-25T09:17:35;9.20;99.90
51655;DHT22;37732;53.106;7.030;2024-03-25T09:20:02;9.30;99.90
51655;DHT22;37732;53.106;7.030;2024-03-25T09:22:29;9.20;99.90
51655;DHT22;37732;53.106;7.030;2024-03-25T09:24:55;9.20;99.90
51655;DHT22;37732;53.106;7.030;2024-03-25T09:27:21;9.30;99.90
51655;DHT22;37732;53.106;7.030;2024-03-25T09:29:46;9.60;99.90
51655;DHT22;37732;53.106;7.030;2024-03-25T09:32:12;9.80;99.90
51655;DHT22;37732;53.106;7.030;2024-03-25T09:34:38;10.10;99.90
51655;DHT22;37732;53.106;7.030;2024-03-25T09:37:03;10.30;99.90
51655;DHT22;37732;53.106;7.030;2024-03-25T09:39:29;10.40;99.90
51655;DHT22;37732;53.106;7.030;2024-03-25T09:41:56;10.40;99.90
51655;DHT22;37732;53.106;7.030;2024-03-25T09:44:25;10.50;99.90
51655;DHT22;37732;53.106;7.030;2024-03-25T09:46:51;10.60;99.90
51655;DHT22;37732;53.106;7.030;2024-03-25T09:49:17;10.80;99.90
51655;DHT22;37732;53.106;7.030;2024-03-25T09:51:44;10.90;99.90
51655;DHT22;37732;53.106;7.030;2024-03-25T09:54:10;10.90;99.90
51655;DHT22;37732;53.106;7.030;2024-03-25T09:56:38;11.00;99.90
51655;DHT22;37732;53.106;7.030;2024-03-25T09:59:04;10.90;99.90
51655;DHT22;37732;53.106;7.030;2024-03-25T10:01:30;10.70;99.90
51655;DHT22;37732;53.106;7.030;2024-03-25T10:03:56;10.90;99.90
51655;DHT22;37732;53.106;7.030;2024-03-25T10:06:21;11.20;99.90
51655;DHT22;37732;53.106;7.030;2024-03-25T10:08:47;11.30;99.90
51655;DHT22;37732;53.106;7.030;2024-03-25T10:11:13;11.40;99.90
51655;DHT22;37732;53.106;7.030;2024-03-25T10:13:40;11.30;99.90
51655;DHT22;37732;53.106;7.030;2024-03-25T10:16:07;11.10;99.90
51655;DHT22;37732;53.106;7.030;2024-03-25T10:18:33;11.00;99.90
51655;DHT22;37732;53.106;7.030;2024-03-25T10:20:59;10.90;99.90
51655;DHT22;37732;53.106;7.030;2024-03-25T10:23:25;10.70;99.90
51655;DHT22;37732;53.106;7.030;2024-03-25T10:25:55;10.70;99.90
51655;DHT22;37732;53.106;7.030;2024-03-25T10:28:21;10.70;99.90
51655;DHT22;37732;53.106;7.030;2024-03-25T10:30:47;10.70;99.90
51655;DHT22;37732;53.106;7.030;2024-03-25T10:33:12;10.90;99.90
51655;DHT22;37732;53.106;7.030;2024-03-25T10:35:39;10.90;99.90
51655;DHT22;37732;53.106;7.030;2024-03-25T10:38:07;11.10;99.90
51655;DHT22;37732;53.106;7.030;2024-03-25T10:40:35;11.10;99.90
51655;DHT22;37732;53.106;7.030;2024-03-25T10:45:34;10.90;99.90
51655;DHT22;37732;53.106;7.030;2024-03-25T10:48:03;11.00;99.90
51655;DHT22;37732;53.106;7.030;2024-03-25T10:50:32;11.10;99.90
51655;DHT22;37732;53.106;7.030;2024-03-25T10:52:59;11.40;99.90
51655;DHT22;37732;53.106;7.030;2024-03-25T10:55:26;11.50;99.90
51655;DHT22;37732;53.106;7.030;2024-03-25T10:57:52;11.40;99.90
51655;DHT22;37732;53.106;7.030;2024-03-25T11:00:19;11.20;99.90
51655;DHT22;37732;53.106;7.030;2024-03-25T11:02:47;11.10;99.90
51655;DHT22;37732;53.106;7.030;2024-03-25T11:05:13;11.20;99.90
51655;DHT22;37732;53.106;7.030;2024-03-25T11:07:40;11.20;99.90
51655;DHT22;37732;53.106;7.030;2024-03-25T11:10:07;11.20;99.90
51655;DHT22;37732;53.106;7.030;2024-03-25T11:12:35;11.50;99.90
51655;DHT22;37732;53.106;7.030;2024-03-25T11:15:10;11.60;99.90
51655;DHT22;37732;53.106;7.030;2024-03-25T11:17:37;11.70;99.90
51655;DHT22;37732;53.106;7.030;2024-03-25T11:20:15;11.70;99.90
51655;DHT22;37732;53.106;7.030;2024-03-25T11:22:51;11.60;99.90
51655;DHT22;37732;53.106;7.030;2024-03-25T11:25:17;11.70;99.90
51655;DHT22;37732;53.106;7.030;2024-03-25T11:27:44;11.60;99.90
51655;DHT22;37732;53.106;7.030;2024-03-25T11:30:14;11.90;99.90
51655;DHT22;37732;53.106;7.030;2024-03-25T11:35:10;12.10;99.90
51655;DHT22;37732;53.106;7.030;2024-03-25T11:37:40;12.20;99.90
51655;DHT22;37732;53.106;7.030;2024-03-25T11:40:07;12.30;99.90
51655;DHT22;37732;53.106;7.030;2024-03-25T11:42:35;12.30;99.90
51655;DHT22;37732;53.106;7.030;2024-03-25T11:45:01;12.50;99.90
51655;DHT22;37732;53.106;7.030;2024-03-25T11:47:30;12.50;99.90
51655;DHT22;37732;53.106;7.030;2024-03-25T11:49:56;12.10;99.90
51655;DHT22;37732;53.106;7.030;2024-03-25T11:52:22;12.30;99.90
51655;DHT22;37732;53.106;7.030;2024-03-25T11:54:54;12.20;99.90
51655;DHT22;37732;53.106;7.030;2024-03-25T11:57:21;12.10;99.90
51655;DHT22;37732;53.106;7.030;2024-03-25T11:59:47;11.60;99.90
51655;DHT22;37732;53.106;7.030;2024-03-25T12:02:16;11.10;99.90
51655;DHT22;37732;53.106;7.030;2024-03-25T12:04:43;10.70;99.90
51655;DHT22;37732;53.106;7.030;2024-03-25T12:07:14;10.60;99.90
51655;DHT22;37732;53.106;7.030;2024-03-25T12:09:40;10.40;99.90
51655;DHT22;37732;53.106;7.030;2024-03-25T12:12:25;10.50;99.90
51655;DHT22;37732;53.106;7.030;2024-03-25T12:14:51;10.50;99.90
51655;DHT22;37732;53.106;7.030;2024-03-25T12:17:18;11.00;99.90
51655;DHT22;37732;53.106;7.030;2024-03-25T12:19:45;10.80;99.90
51655;DHT22;37732;53.106;7.030;2024-03-25T12:22:25;11.10;99.90
51655;DHT22;37732;53.106;7.030;2024-03-25T12:24:51;11.30;99.90
51655;DHT22;37732;53.106;7.030;2024-03-25T12:27:16;11.60;99.90
51655;DHT22;37732;53.106;7.030;2024-03-25T12:29:43;11.80;99.90
51655;DHT22;37732;53.106;7.030;2024-03-25T12:32:10;12.00;99.90
51655;DHT22;37732;53.106;7.030;2024-03-25T12:34:35;12.30;99.90
51655;DHT22;37732;53.106;7.030;2024-03-25T12:37:02;11.90;99.90
51655;DHT22;37732;53.106;7.030;2024-03-25T12:39:30;11.90;99.90
51655;DHT22;37732;53.106;7.030;2024-03-25T12:41:56;11.80;99.90
51655;DHT22;37732;53.106;7.030;2024-03-25T12:44:21;11.70;99.90
51655;DHT22;37732;53.106;7.030;2024-03-25T12:46:47;11.80;99.90
51655;DHT22;37732;53.106;7.030;2024-03-25T12:49:13;11.90;99.90
51655;DHT22;37732;53.106;7.030;2024-03-25T12:51:39;11.90;99.90
51655;DHT22;37732;53.106;7.030;2024-03-25T12:54:04;11.70;99.90
51655;DHT22;37732;53.106;7.030;2024-03-25T12:56:30;12.00;99.90
51655;DHT22;37732;53.106;7.030;2024-03-25T12:58:55;11.80;99.90
51655;DHT22;37732;53.106;7.030;2024-03-25T13:01:21;11.90;99.90
51655;DHT22;37732;53.106;7.030;2024-03-25T13:03:47;12.10;99.90
51655;DHT22;37732;53.106;7.030;2024-03-25T13:06:13;12.20;99.90
51655;DHT22;37732;53.106;7.030;2024-03-25T13:08:38;12.30;99.90
51655;DHT22;37732;53.106;7.030;2024-03-25T13:11:04;12.40;99.90
51655;DHT22;37732;53.106;7.030;2024-03-25T13:13:30;12.40;99.90
51655;DHT22;37732;53.106;7.030;2024-03-25T13:15:55;12.40;99.90
51655;DHT22;37732;53.106;7.030;2024-03-25T13:18:21;12.70;99.90
51655;DHT22;37732;53.106;7.030;2024-03-25T13:20:47;12.50;99.90
51655;DHT22;37732;53.106;7.030;2024-03-25T13:23:12;12.60;99.90
51655;DHT22;37732;53.106;7.030;2024-03-25T13:25:38;12.60;99.90
51655;DHT22;37732;53.106;7.030;2024-03-25T13:28:04;12.70;99.90
51655;DHT22;37732;53.106;7.030;2024-03-25T13:30:31;12.70;99.90
51655;DHT22;37732;53.106;7.030;2024-03-25T13:32:57;12.60;99.90
51655;DHT22;37732;53.106;7.030;2024-03-25T13:35:23;12.50;99.90
51655;DHT22;37732;53.106;7.030;2024-03-25T13:37:49;12.40;99.90
51655;DHT22;37732;53.106;7.030;2024-03-25T13:40:14;12.40;99.90
51655;DHT22;37732;53.106;7.030;2024-03-25T13:42:40;12.50;99.90
51655;DHT22;37732;53.106;7.030;2024-03-25T13:45:06;12.40;99.90
51655;DHT22;37732;53.106;7.030;2024-03-25T13:47:32;12.40;99.90
51655;DHT22;37732;53.106;7.030;2024-03-25T13:50:04;12.30;99.90
51655;DHT22;37732;53.106;7.030;2024-03-25T13:52:32;12.20;99.90
51655;DHT22;37732;53.106;7.030;2024-03-25T13:54:58;12.20;99.90
51655;DHT22;37732;53.106;7.030;2024-03-25T13:57:24;12.10;99.90
51655;DHT22;37732;53.106;7.030;2024-03-25T13:59:52;12.20;99.90
51655;DHT22;37732;53.106;7.030;2024-03-25T14:02:18;12.20;99.90
51655;DHT22;37732;53.106;7.030;2024-03-25T14:04:43;12.20;99.90
51655;DHT22;37732;53.106;7.030;2024-03-25T14:07:09;12.40;99.90
51655;DHT22;37732;53.106;7.030;2024-03-25T14:09:35;12.30;99.90
51655;DHT22;37732;53.106;7.030;2024-03-25T14:12:00;12.20;99.90
51655;DHT22;37732;53.106;7.030;2024-03-25T14:14:26;12.30;99.90
51655;DHT22;37732;53.106;7.030;2024-03-25T14:16:52;12.00;99.90
51655;DHT22;37732;53.106;7.030;2024-03-25T14:19:18;12.10;99.90
51655;DHT22;37732;53.106;7.030;2024-03-25T14:21:43;12.00;99.90
51655;DHT22;37732;53.106;7.030;2024-03-25T14:24:09;12.00;99.90
51655;DHT22;37732;53.106;7.030;2024-03-25T14:26:35;12.10;99.90
51655;DHT22;37732;53.106;7.030;2024-03-25T14:29:00;12.00;99.90
51655;DHT22;37732;53.106;7.030;2024-03-25T14:31:27;12.00;99.90
51655;DHT22;37732;53.106;7.030;2024-03-25T14:33:55;12.10;99.90
51655;DHT22;37732;53.106;7.030;2024-03-25T14:36:20;12.10;99.90
51655;DHT22;37732;53.106;7.030;2024-03-25T14:38:47;12.10;99.90
51655;DHT22;37732;53.106;7.030;2024-03-25T14:41:18;12.10;99.90
51655;DHT22;37732;53.106;7.030;2024-03-25T14:43:44;12.10;99.90
51655;DHT22;37732;53.106;7.030;2024-03-25T14:46:09;12.10;99.90
51655;DHT22;37732;53.106;7.030;2024-03-25T14:48:35;12.00;99.90
51655;DHT22;37732;53.106;7.030;2024-03-25T14:51:00;12.00;99.90
51655;DHT22;37732;53.106;7.030;2024-03-25T14:53:26;11.90;99.90
51655;DHT22;37732;53.106;7.030;2024-03-25T14:55:52;11.80;99.90
51655;DHT22;37732;53.106;7.030;2024-03-25T14:58:17;11.70;99.90
51655;DHT22;37732;53.106;7.030;2024-03-25T15:00:43;11.60;99.90
51655;DHT22;37732;53.106;7.030;2024-03-25T15:03:09;11.60;99.90
51655;DHT22;37732;53.106;7.030;2024-03-25T15:05:35;11.60;99.90
51655;DHT22;37732;53.106;7.030;2024-03-25T15:08:01;11.50;99.90
51655;DHT22;37732;53.106;7.030;2024-03-25T15:10:27;11.40;99.90
51655;DHT22;37732;53.106;7.030;2024-03-25T15:12:53;11.40;99.90
51655;DHT22;37732;53.106;7.030;2024-03-25T15:15:19;11.30;99.90
51655;DHT22;37732;53.106;7.030;2024-03-25T15:17:45;11.20;99.90
51655;DHT22;37732;53.106;7.030;2024-03-25T15:20:11;11.20;99.90
51655;DHT22;37732;53.106;7.030;2024-03-25T15:22:37;11.10;99.90
51655;DHT22;37732;53.106;7.030;2024-03-25T15:25:04;11.10;99.90
51655;DHT22;37732;53.106;7.030;2024-03-25T15:27:30;11.10;99.90
51655;DHT22;37732;53.106;7.030;2024-03-25T15:29:56;11.00;99.90
51655;DHT22;37732;53.106;7.030;2024-03-25T15:32:22;11.20;99.90
51655;DHT22;37732;53.106;7.030;2024-03-25T15:34:48;10.70;99.90
51655;DHT22;37732;53.106;7.030;2024-03-25T15:37:14;10.80;99.90
51655;DHT22;37732;53.106;7.030;2024-03-25T15:39:41;10.80;99.90
51655;DHT22;37732;53.106;7.030;2024-03-25T15:42:06;10.90;99.90